CYXX

Abbotsford Airport

Abbotsford, , Canada
METAR CYXX 131100Z 34006KT 10SM RA SCT021 BKN030 OVC032 06/05 A2998 RMK SC3SC3NS2 SLP154
Observed Flight Rules
Dec-13 @ 11:00 UTC (43 minutes ago) Marginal Visual Flight Rules
Wind Visibility Clouds Conditions
340° at 6 knots 10 miles
  • Scattered at 2,100' AGL
  • Broken at 3,000' AGL
  • Overcast at 3,200' AGL
  • Rain
Temperatures Readings
Current 6°C / 43°F
Dewpoint 5°C / 41°F
Humidity 93%
Altimeter 29.98" Hg
Pressure 1015.4 hPa
Elevation 58
METAR CYXX 131100Z 34006KT 10SM RA SCT021 BKN030 OVC032 06/05 A2998 RMK SC3SC3NS2 SLP154
Observed Flight Rules
Dec-13 @ 11:00 UTC
(43 minutes ago)
MVFR
Wind Visibility
340° at 6 knots 10 miles
Clouds
  • Scattered at 2,100' AGL
  • Broken at 3,000' AGL
  • Overcast at 3,200' AGL
Conditions
  • Rain
Temperature Dewpoint
6°C / 43°F 5°C / 41°F
Humidity Altimeter Pressure
93% 29.98" Hg 1015.4 hPa